sensor_id;sensor_type;location;lat;lon;timestamp;P1;durP1;ratioP1;P2;durP2;ratioP2
15480;SDS011;7842;50.904;6.670;2022-10-16T00:01:14;1.73;;;1.55;;
15480;SDS011;7842;50.904;6.670;2022-10-16T00:03:42;2.03;;;1.50;;
15480;SDS011;7842;50.904;6.670;2022-10-16T00:06:09;2.40;;;1.77;;
15480;SDS011;7842;50.904;6.670;2022-10-16T00:08:36;1.83;;;1.70;;
15480;SDS011;7842;50.904;6.670;2022-10-16T00:11:07;1.88;;;1.70;;
15480;SDS011;7842;50.904;6.670;2022-10-16T00:13:38;1.98;;;1.63;;
15480;SDS011;7842;50.904;6.670;2022-10-16T00:16:06;2.03;;;1.63;;
15480;SDS011;7842;50.904;6.670;2022-10-16T00:18:32;1.90;;;1.70;;
15480;SDS011;7842;50.904;6.670;2022-10-16T00:21:02;2.50;;;1.90;;
15480;SDS011;7842;50.904;6.670;2022-10-16T00:23:29;2.07;;;1.83;;
15480;SDS011;7842;50.904;6.670;2022-10-16T00:25:56;2.83;;;1.85;;
15480;SDS011;7842;50.904;6.670;2022-10-16T00:28:22;2.20;;;1.92;;
15480;SDS011;7842;50.904;6.670;2022-10-16T00:30:48;1.95;;;1.80;;
15480;SDS011;7842;50.904;6.670;2022-10-16T00:33:14;2.33;;;1.80;;
15480;SDS011;7842;50.904;6.670;2022-10-16T00:35:39;3.47;;;2.03;;
15480;SDS011;7842;50.904;6.670;2022-10-16T00:38:05;2.42;;;2.22;;
15480;SDS011;7842;50.904;6.670;2022-10-16T00:40:30;3.47;;;2.00;;
15480;SDS011;7842;50.904;6.670;2022-10-16T00:42:56;2.20;;;2.00;;
15480;SDS011;7842;50.904;6.670;2022-10-16T00:45:22;2.53;;;2.30;;
15480;SDS011;7842;50.904;6.670;2022-10-16T00:47:48;2.40;;;2.20;;
15480;SDS011;7842;50.904;6.670;2022-10-16T00:52:53;2.43;;;2.23;;
15480;SDS011;7842;50.904;6.670;2022-10-16T00:55:20;3.35;;;2.30;;
15480;SDS011;7842;50.904;6.670;2022-10-16T00:57:46;2.50;;;2.30;;
15480;SDS011;7842;50.904;6.670;2022-10-16T01:00:15;2.60;;;2.40;;
15480;SDS011;7842;50.904;6.670;2022-10-16T01:02:44;2.42;;;2.22;;
15480;SDS011;7842;50.904;6.670;2022-10-16T01:05:09;2.33;;;2.13;;
15480;SDS011;7842;50.904;6.670;2022-10-16T01:07:45;2.83;;;2.50;;
15480;SDS011;7842;50.904;6.670;2022-10-16T01:10:38;2.88;;;2.55;;
15480;SDS011;7842;50.904;6.670;2022-10-16T01:13:24;3.38;;;2.45;;
15480;SDS011;7842;50.904;6.670;2022-10-16T01:16:05;5.88;;;2.67;;
15480;SDS011;7842;50.904;6.670;2022-10-16T01:18:53;2.58;;;2.38;;
15480;SDS011;7842;50.904;6.670;2022-10-16T01:21:26;2.40;;;2.20;;
15480;SDS011;7842;50.904;6.670;2022-10-16T01:29:42;2.60;;;2.40;;
15480;SDS011;7842;50.904;6.670;2022-10-16T01:32:35;3.67;;;2.58;;
15480;SDS011;7842;50.904;6.670;2022-10-16T01:35:18;2.55;;;2.22;;
15480;SDS011;7842;50.904;6.670;2022-10-16T01:38:06;3.50;;;2.20;;
15480;SDS011;7842;50.904;6.670;2022-10-16T01:40:38;2.45;;;2.25;;
15480;SDS011;7842;50.904;6.670;2022-10-16T01:43:11;2.50;;;2.30;;
15480;SDS011;7842;50.904;6.670;2022-10-16T01:45:44;2.70;;;2.20;;
15480;SDS011;7842;50.904;6.670;2022-10-16T01:48:11;2.80;;;2.50;;
15480;SDS011;7842;50.904;6.670;2022-10-16T01:50:40;2.40;;;2.20;;
15480;SDS011;7842;50.904;6.670;2022-10-16T01:53:08;2.50;;;2.30;;
15480;SDS011;7842;50.904;6.670;2022-10-16T01:55:38;2.38;;;2.17;;
15480;SDS011;7842;50.904;6.670;2022-10-16T01:58:10;2.88;;;2.60;;
15480;SDS011;7842;50.904;6.670;2022-10-16T02:00:38;3.28;;;2.28;;
15480;SDS011;7842;50.904;6.670;2022-10-16T02:03:05;2.77;;;2.30;;
15480;SDS011;7842;50.904;6.670;2022-10-16T02:05:36;2.70;;;2.50;;
15480;SDS011;7842;50.904;6.670;2022-10-16T02:08:15;2.83;;;2.50;;
15480;SDS011;7842;50.904;6.670;2022-10-16T02:10:40;2.83;;;2.40;;
15480;SDS011;7842;50.904;6.670;2022-10-16T02:13:08;2.38;;;2.17;;
15480;SDS011;7842;50.904;6.670;2022-10-16T02:15:37;2.60;;;2.40;;
15480;SDS011;7842;50.904;6.670;2022-10-16T02:18:03;2.43;;;2.23;;
15480;SDS011;7842;50.904;6.670;2022-10-16T02:20:32;2.45;;;2.25;;
15480;SDS011;7842;50.904;6.670;2022-10-16T02:23:03;2.47;;;2.28;;
15480;SDS011;7842;50.904;6.670;2022-10-16T02:25:34;4.32;;;2.30;;
15480;SDS011;7842;50.904;6.670;2022-10-16T02:30:44;2.70;;;2.40;;
15480;SDS011;7842;50.904;6.670;2022-10-16T02:33:15;2.30;;;2.10;;
15480;SDS011;7842;50.904;6.670;2022-10-16T02:35:42;2.45;;;1.80;;
15480;SDS011;7842;50.904;6.670;2022-10-16T02:38:11;2.30;;;2.08;;
15480;SDS011;7842;50.904;6.670;2022-10-16T02:40:39;2.20;;;1.90;;
15480;SDS011;7842;50.904;6.670;2022-10-16T02:43:06;2.10;;;1.90;;
15480;SDS011;7842;50.904;6.670;2022-10-16T02:45:32;1.85;;;1.70;;
15480;SDS011;7842;50.904;6.670;2022-10-16T02:47:58;1.90;;;1.75;;
15480;SDS011;7842;50.904;6.670;2022-10-16T02:50:23;1.92;;;1.80;;
15480;SDS011;7842;50.904;6.670;2022-10-16T02:52:50;2.70;;;1.75;;
15480;SDS011;7842;50.904;6.670;2022-10-16T02:55:15;2.20;;;1.70;;
15480;SDS011;7842;50.904;6.670;2022-10-16T02:57:41;3.13;;;2.00;;
15480;SDS011;7842;50.904;6.670;2022-10-16T03:00:08;2.20;;;1.70;;
15480;SDS011;7842;50.904;6.670;2022-10-16T03:02:35;1.90;;;1.60;;
15480;SDS011;7842;50.904;6.670;2022-10-16T03:05:01;3.17;;;1.90;;
15480;SDS011;7842;50.904;6.670;2022-10-16T03:07:26;2.13;;;1.75;;
15480;SDS011;7842;50.904;6.670;2022-10-16T03:09:52;2.03;;;1.70;;
15480;SDS011;7842;50.904;6.670;2022-10-16T03:12:18;1.80;;;1.60;;
15480;SDS011;7842;50.904;6.670;2022-10-16T03:14:43;2.30;;;1.70;;
15480;SDS011;7842;50.904;6.670;2022-10-16T03:17:09;1.50;;;1.38;;
15480;SDS011;7842;50.904;6.670;2022-10-16T03:19:35;1.90;;;1.60;;
15480;SDS011;7842;50.904;6.670;2022-10-16T03:22:00;1.50;;;1.40;;
15480;SDS011;7842;50.904;6.670;2022-10-16T03:24:26;2.95;;;1.35;;
15480;SDS011;7842;50.904;6.670;2022-10-16T03:26:52;1.57;;;1.30;;
15480;SDS011;7842;50.904;6.670;2022-10-16T03:29:18;1.30;;;1.10;;
15480;SDS011;7842;50.904;6.670;2022-10-16T03:31:43;2.20;;;1.40;;
15480;SDS011;7842;50.904;6.670;2022-10-16T03:34:09;1.43;;;1.33;;
15480;SDS011;7842;50.904;6.670;2022-10-16T03:36:34;1.40;;;1.30;;
15480;SDS011;7842;50.904;6.670;2022-10-16T03:39:00;1.35;;;1.25;;
15480;SDS011;7842;50.904;6.670;2022-10-16T03:41:25;2.00;;;1.40;;
15480;SDS011;7842;50.904;6.670;2022-10-16T03:43:51;1.63;;;1.20;;
15480;SDS011;7842;50.904;6.670;2022-10-16T03:46:16;2.15;;;1.40;;
15480;SDS011;7842;50.904;6.670;2022-10-16T03:48:42;1.30;;;1.20;;
15480;SDS011;7842;50.904;6.670;2022-10-16T03:51:08;1.95;;;1.30;;
15480;SDS011;7842;50.904;6.670;2022-10-16T03:53:33;2.13;;;1.40;;
15480;SDS011;7842;50.904;6.670;2022-10-16T03:55:59;1.63;;;1.20;;
15480;SDS011;7842;50.904;6.670;2022-10-16T03:58:25;2.20;;;1.20;;
15480;SDS011;7842;50.904;6.670;2022-10-16T04:00:50;1.33;;;1.23;;
15480;SDS011;7842;50.904;6.670;2022-10-16T04:03:16;1.50;;;1.40;;
15480;SDS011;7842;50.904;6.670;2022-10-16T04:05:43;1.45;;;1.30;;
15480;SDS011;7842;50.904;6.670;2022-10-16T04:08:09;2.60;;;1.50;;
15480;SDS011;7842;50.904;6.670;2022-10-16T04:10:35;2.07;;;1.47;;
15480;SDS011;7842;50.904;6.670;2022-10-16T04:13:01;1.10;;;1.00;;
15480;SDS011;7842;50.904;6.670;2022-10-16T04:15:26;1.40;;;1.30;;
15480;SDS011;7842;50.904;6.670;2022-10-16T04:17:52;1.38;;;1.20;;
15480;SDS011;7842;50.904;6.670;2022-10-16T04:20:18;1.50;;;1.20;;
15480;SDS011;7842;50.904;6.670;2022-10-16T04:22:44;1.63;;;1.23;;
15480;SDS011;7842;50.904;6.670;2022-10-16T04:25:09;1.40;;;1.30;;
15480;SDS011;7842;50.904;6.670;2022-10-16T04:27:36;1.80;;;1.40;;
15480;SDS011;7842;50.904;6.670;2022-10-16T04:30:03;1.88;;;1.23;;
15480;SDS011;7842;50.904;6.670;2022-10-16T04:32:29;1.60;;;1.30;;
15480;SDS011;7842;50.904;6.670;2022-10-16T04:34:54;1.60;;;1.50;;
15480;SDS011;7842;50.904;6.670;2022-10-16T04:37:24;1.67;;;1.20;;
15480;SDS011;7842;50.904;6.670;2022-10-16T04:39:50;1.20;;;1.10;;
15480;SDS011;7842;50.904;6.670;2022-10-16T04:42:16;1.67;;;1.40;;
15480;SDS011;7842;50.904;6.670;2022-10-16T04:44:42;2.88;;;1.52;;
15480;SDS011;7842;50.904;6.670;2022-10-16T04:47:07;1.50;;;1.27;;
15480;SDS011;7842;50.904;6.670;2022-10-16T04:49:33;1.30;;;1.20;;
15480;SDS011;7842;50.904;6.670;2022-10-16T04:51:59;1.90;;;1.30;;
15480;SDS011;7842;50.904;6.670;2022-10-16T04:54:24;1.60;;;1.40;;
15480;SDS011;7842;50.904;6.670;2022-10-16T04:56:50;2.10;;;1.45;;
15480;SDS011;7842;50.904;6.670;2022-10-16T04:59:17;3.10;;;1.47;;
15480;SDS011;7842;50.904;6.670;2022-10-16T05:01:44;1.42;;;1.33;;
15480;SDS011;7842;50.904;6.670;2022-10-16T05:04:10;2.20;;;1.37;;
15480;SDS011;7842;50.904;6.670;2022-10-16T05:06:36;1.57;;;1.47;;
15480;SDS011;7842;50.904;6.670;2022-10-16T05:09:03;1.58;;;1.48;;
15480;SDS011;7842;50.904;6.670;2022-10-16T05:11:29;1.60;;;1.50;;
15480;SDS011;7842;50.904;6.670;2022-10-16T05:13:55;1.70;;;1.50;;
15480;SDS011;7842;50.904;6.670;2022-10-16T05:16:21;1.70;;;1.40;;
15480;SDS011;7842;50.904;6.670;2022-10-16T05:18:46;1.60;;;1.50;;
15480;SDS011;7842;50.904;6.670;2022-10-16T05:21:12;1.40;;;1.30;;
15480;SDS011;7842;50.904;6.670;2022-10-16T05:23:37;1.70;;;1.52;;
15480;SDS011;7842;50.904;6.670;2022-10-16T05:26:03;1.95;;;1.50;;
15480;SDS011;7842;50.904;6.670;2022-10-16T05:28:29;1.70;;;1.50;;
15480;SDS011;7842;50.904;6.670;2022-10-16T05:30:55;1.60;;;1.40;;
15480;SDS011;7842;50.904;6.670;2022-10-16T05:33:22;2.00;;;1.40;;
15480;SDS011;7842;50.904;6.670;2022-10-16T05:35:49;1.65;;;1.40;;
15480;SDS011;7842;50.904;6.670;2022-10-16T05:38:15;1.80;;;1.60;;
15480;SDS011;7842;50.904;6.670;2022-10-16T05:40:41;1.70;;;1.40;;
15480;SDS011;7842;50.904;6.670;2022-10-16T05:43:07;1.60;;;1.50;;
15480;SDS011;7842;50.904;6.670;2022-10-16T05:45:32;2.45;;;1.50;;
15480;SDS011;7842;50.904;6.670;2022-10-16T05:47:59;1.80;;;1.58;;
15480;SDS011;7842;50.904;6.670;2022-10-16T05:50:25;1.70;;;1.60;;
15480;SDS011;7842;50.904;6.670;2022-10-16T05:52:51;1.38;;;1.27;;
15480;SDS011;7842;50.904;6.670;2022-10-16T05:55:17;1.58;;;1.40;;
15480;SDS011;7842;50.904;6.670;2022-10-16T05:57:42;1.50;;;1.40;;
15480;SDS011;7842;50.904;6.670;2022-10-16T06:00:08;1.90;;;1.50;;
15480;SDS011;7842;50.904;6.670;2022-10-16T06:02:34;2.00;;;1.45;;
15480;SDS011;7842;50.904;6.670;2022-10-16T06:05:00;1.80;;;1.50;;
15480;SDS011;7842;50.904;6.670;2022-10-16T06:07:26;1.63;;;1.53;;
15480;SDS011;7842;50.904;6.670;2022-10-16T06:09:51;1.85;;;1.50;;
15480;SDS011;7842;50.904;6.670;2022-10-16T06:12:18;1.70;;;1.60;;
15480;SDS011;7842;50.904;6.670;2022-10-16T06:14:44;2.03;;;1.63;;
15480;SDS011;7842;50.904;6.670;2022-10-16T06:17:11;2.55;;;1.70;;
15480;SDS011;7842;50.904;6.670;2022-10-16T06:19:38;2.10;;;1.67;;
15480;SDS011;7842;50.904;6.670;2022-10-16T06:22:04;2.20;;;1.80;;
15480;SDS011;7842;50.904;6.670;2022-10-16T06:24:29;2.33;;;1.60;;
15480;SDS011;7842;50.904;6.670;2022-10-16T06:26:55;2.05;;;1.70;;
15480;SDS011;7842;50.904;6.670;2022-10-16T06:29:21;1.70;;;1.60;;
15480;SDS011;7842;50.904;6.670;2022-10-16T06:31:46;2.22;;;1.90;;
15480;SDS011;7842;50.904;6.670;2022-10-16T06:34:12;2.72;;;2.00;;
15480;SDS011;7842;50.904;6.670;2022-10-16T06:36:39;2.60;;;2.40;;
15480;SDS011;7842;50.904;6.670;2022-10-16T06:39:05;2.57;;;2.17;;
15480;SDS011;7842;50.904;6.670;2022-10-16T06:41:32;2.60;;;2.40;;
15480;SDS011;7842;50.904;6.670;2022-10-16T06:43:58;2.60;;;2.40;;
15480;SDS011;7842;50.904;6.670;2022-10-16T06:46:24;2.40;;;2.20;;
15480;SDS011;7842;50.904;6.670;2022-10-16T06:48:50;3.53;;;2.67;;
15480;SDS011;7842;50.904;6.670;2022-10-16T06:51:17;2.45;;;2.25;;
15480;SDS011;7842;50.904;6.670;2022-10-16T06:53:51;2.40;;;2.20;;
15480;SDS011;7842;50.904;6.670;2022-10-16T06:56:19;2.23;;;2.03;;
15480;SDS011;7842;50.904;6.670;2022-10-16T06:58:46;2.30;;;2.10;;
15480;SDS011;7842;50.904;6.670;2022-10-16T07:01:13;2.40;;;2.20;;
15480;SDS011;7842;50.904;6.670;2022-10-16T07:03:41;2.67;;;2.47;;
15480;SDS011;7842;50.904;6.670;2022-10-16T07:06:08;4.20;;;2.83;;
15480;SDS011;7842;50.904;6.670;2022-10-16T07:08:36;2.80;;;2.60;;
15480;SDS011;7842;50.904;6.670;2022-10-16T07:11:04;2.78;;;2.58;;
15480;SDS011;7842;50.904;6.670;2022-10-16T07:13:41;2.80;;;2.60;;
15480;SDS011;7842;50.904;6.670;2022-10-16T07:16:08;2.50;;;2.30;;
15480;SDS011;7842;50.904;6.670;2022-10-16T07:18:34;2.40;;;2.20;;
15480;SDS011;7842;50.904;6.670;2022-10-16T07:21:08;2.15;;;2.00;;
15480;SDS011;7842;50.904;6.670;2022-10-16T07:23:36;2.90;;;1.60;;
15480;SDS011;7842;50.904;6.670;2022-10-16T07:26:03;1.80;;;1.52;;
15480;SDS011;7842;50.904;6.670;2022-10-16T07:28:29;1.60;;;1.42;;
15480;SDS011;7842;50.904;6.670;2022-10-16T07:30:59;2.17;;;1.50;;
15480;SDS011;7842;50.904;6.670;2022-10-16T07:33:35;1.60;;;1.42;;
15480;SDS011;7842;50.904;6.670;2022-10-16T07:36:02;1.95;;;1.40;;
15480;SDS011;7842;50.904;6.670;2022-10-16T07:38:27;2.33;;;1.37;;
15480;SDS011;7842;50.904;6.670;2022-10-16T07:40:59;1.73;;;1.60;;
15480;SDS011;7842;50.904;6.670;2022-10-16T07:43:29;2.50;;;2.20;;
15480;SDS011;7842;50.904;6.670;2022-10-16T07:45:56;2.55;;;2.35;;
15480;SDS011;7842;50.904;6.670;2022-10-16T07:48:22;5.43;;;4.72;;
15480;SDS011;7842;50.904;6.670;2022-10-16T07:50:48;4.23;;;3.83;;
15480;SDS011;7842;50.904;6.670;2022-10-16T07:53:14;2.50;;;2.00;;
15480;SDS011;7842;50.904;6.670;2022-10-16T07:55:40;1.67;;;1.58;;
15480;SDS011;7842;50.904;6.670;2022-10-16T07:58:06;1.60;;;1.50;;
15480;SDS011;7842;50.904;6.670;2022-10-16T08:00:32;2.10;;;1.50;;
15480;SDS011;7842;50.904;6.670;2022-10-16T08:02:58;1.90;;;1.60;;
15480;SDS011;7842;50.904;6.670;2022-10-16T08:05:30;2.20;;;1.40;;
15480;SDS011;7842;50.904;6.670;2022-10-16T08:07:57;2.10;;;1.90;;
15480;SDS011;7842;50.904;6.670;2022-10-16T08:10:23;4.07;;;3.67;;
15480;SDS011;7842;50.904;6.670;2022-10-16T08:12:51;5.97;;;4.20;;
15480;SDS011;7842;50.904;6.670;2022-10-16T08:15:17;4.95;;;2.70;;
15480;SDS011;7842;50.904;6.670;2022-10-16T08:17:44;1.80;;;1.70;;
15480;SDS011;7842;50.904;6.670;2022-10-16T08:20:10;2.10;;;1.13;;
15480;SDS011;7842;50.904;6.670;2022-10-16T08:22:36;2.85;;;1.20;;
15480;SDS011;7842;50.904;6.670;2022-10-16T08:25:01;1.73;;;1.30;;
15480;SDS011;7842;50.904;6.670;2022-10-16T08:27:36;1.90;;;1.25;;
15480;SDS011;7842;50.904;6.670;2022-10-16T08:30:01;2.35;;;1.13;;
15480;SDS011;7842;50.904;6.670;2022-10-16T08:32:27;1.88;;;1.13;;
15480;SDS011;7842;50.904;6.670;2022-10-16T08:34:53;1.90;;;1.42;;
15480;SDS011;7842;50.904;6.670;2022-10-16T08:37:18;2.90;;;0.87;;
15480;SDS011;7842;50.904;6.670;2022-10-16T08:39:44;3.75;;;1.30;;
15480;SDS011;7842;50.904;6.670;2022-10-16T08:45:03;1.10;;;1.00;;
15480;SDS011;7842;50.904;6.670;2022-10-16T08:50:49;1.17;;;1.00;;
15480;SDS011;7842;50.904;6.670;2022-10-16T08:53:24;1.27;;;1.00;;
15480;SDS011;7842;50.904;6.670;2022-10-16T08:56:12;2.63;;;1.20;;
15480;SDS011;7842;50.904;6.670;2022-10-16T08:58:37;2.47;;;0.93;;
15480;SDS011;7842;50.904;6.670;2022-10-16T09:01:03;1.55;;;1.00;;
15480;SDS011;7842;50.904;6.670;2022-10-16T09:11:35;1.02;;;0.80;;
15480;SDS011;7842;50.904;6.670;2022-10-16T09:14:12;1.70;;;1.10;;
15480;SDS011;7842;50.904;6.670;2022-10-16T09:16:53;1.38;;;1.00;;
15480;SDS011;7842;50.904;6.670;2022-10-16T09:21:54;1.73;;;1.00;;
15480;SDS011;7842;50.904;6.670;2022-10-16T09:24:22;1.00;;;0.85;;
15480;SDS011;7842;50.904;6.670;2022-10-16T09:26:50;1.27;;;0.95;;
15480;SDS011;7842;50.904;6.670;2022-10-16T09:29:17;1.50;;;1.00;;
15480;SDS011;7842;50.904;6.670;2022-10-16T09:31:48;1.23;;;0.80;;
15480;SDS011;7842;50.904;6.670;2022-10-16T09:34:24;1.33;;;0.85;;
15480;SDS011;7842;50.904;6.670;2022-10-16T09:36:59;1.00;;;0.90;;
15480;SDS011;7842;50.904;6.670;2022-10-16T09:39:28;1.05;;;0.80;;
15480;SDS011;7842;50.904;6.670;2022-10-16T09:41:53;1.98;;;0.90;;
15480;SDS011;7842;50.904;6.670;2022-10-16T09:44:22;0.95;;;0.80;;
15480;SDS011;7842;50.904;6.670;2022-10-16T09:46:49;1.38;;;0.88;;
15480;SDS011;7842;50.904;6.670;2022-10-16T09:51:43;1.80;;;0.70;;
15480;SDS011;7842;50.904;6.670;2022-10-16T09:56:34;1.08;;;0.60;;
15480;SDS011;7842;50.904;6.670;2022-10-16T09:59:11;1.45;;;0.70;;
15480;SDS011;7842;50.904;6.670;2022-10-16T10:01:40;1.20;;;0.80;;
15480;SDS011;7842;50.904;6.670;2022-10-16T10:04:06;0.70;;;0.70;;
15480;SDS011;7842;50.904;6.670;2022-10-16T10:06:33;1.70;;;0.63;;
15480;SDS011;7842;50.904;6.670;2022-10-16T10:19:30;1.23;;;0.70;;
15480;SDS011;7842;50.904;6.670;2022-10-16T10:22:23;1.23;;;0.90;;
15480;SDS011;7842;50.904;6.670;2022-10-16T10:30:11;0.60;;;0.50;;
15480;SDS011;7842;50.904;6.670;2022-10-16T10:35:41;1.48;;;0.60;;
15480;SDS011;7842;50.904;6.670;2022-10-16T10:41:15;0.93;;;0.60;;
15480;SDS011;7842;50.904;6.670;2022-10-16T10:46:56;0.73;;;0.57;;
15480;SDS011;7842;50.904;6.670;2022-10-16T11:00:19;2.20;;;1.02;;
15480;SDS011;7842;50.904;6.670;2022-10-16T11:02:52;1.70;;;0.90;;
15480;SDS011;7842;50.904;6.670;2022-10-16T11:05:45;2.00;;;0.70;;
15480;SDS011;7842;50.904;6.670;2022-10-16T11:08:38;1.38;;;0.65;;
15480;SDS011;7842;50.904;6.670;2022-10-16T11:14:03;1.77;;;0.80;;
15480;SDS011;7842;50.904;6.670;2022-10-16T11:22:36;3.35;;;0.90;;
15480;SDS011;7842;50.904;6.670;2022-10-16T11:25:14;4.18;;;1.20;;
15480;SDS011;7842;50.904;6.670;2022-10-16T11:27:49;2.42;;;0.98;;
15480;SDS011;7842;50.904;6.670;2022-10-16T11:30:28;2.85;;;0.90;;
15480;SDS011;7842;50.904;6.670;2022-10-16T11:33:02;1.60;;;0.80;;
15480;SDS011;7842;50.904;6.670;2022-10-16T11:38:27;1.88;;;0.85;;
15480;SDS011;7842;50.904;6.670;2022-10-16T11:41:08;2.13;;;0.70;;
15480;SDS011;7842;50.904;6.670;2022-10-16T11:43:45;2.58;;;0.90;;
15480;SDS011;7842;50.904;6.670;2022-10-16T11:46:23;1.58;;;0.93;;
15480;SDS011;7842;50.904;6.670;2022-10-16T11:51:29;2.00;;;0.80;;
15480;SDS011;7842;50.904;6.670;2022-10-16T11:54:18;1.80;;;0.77;;
15480;SDS011;7842;50.904;6.670;2022-10-16T11:57:03;3.38;;;1.10;;
15480;SDS011;7842;50.904;6.670;2022-10-16T12:00:01;1.30;;;0.70;;
15480;SDS011;7842;50.904;6.670;2022-10-16T12:02:48;1.40;;;0.70;;
15480;SDS011;7842;50.904;6.670;2022-10-16T12:05:28;2.25;;;0.82;;
15480;SDS011;7842;50.904;6.670;2022-10-16T12:08:09;1.73;;;0.80;;
15480;SDS011;7842;50.904;6.670;2022-10-16T12:10:41;1.15;;;0.77;;
15480;SDS011;7842;50.904;6.670;2022-10-16T12:16:04;1.87;;;0.80;;
15480;SDS011;7842;50.904;6.670;2022-10-16T12:18:37;2.47;;;0.93;;
15480;SDS011;7842;50.904;6.670;2022-10-16T12:21:07;1.70;;;0.70;;
15480;SDS011;7842;50.904;6.670;2022-10-16T12:23:51;2.00;;;0.77;;
15480;SDS011;7842;50.904;6.670;2022-10-16T12:31:45;1.40;;;0.80;;
15480;SDS011;7842;50.904;6.670;2022-10-16T12:34:14;1.92;;;0.70;;
15480;SDS011;7842;50.904;6.670;2022-10-16T12:37:08;1.83;;;0.90;;
15480;SDS011;7842;50.904;6.670;2022-10-16T12:39:49;0.80;;;0.65;;
15480;SDS011;7842;50.904;6.670;2022-10-16T12:44:51;2.33;;;0.70;;
15480;SDS011;7842;50.904;6.670;2022-10-16T12:47:22;6.10;;;0.90;;
15480;SDS011;7842;50.904;6.670;2022-10-16T12:50:00;2.27;;;0.73;;
15480;SDS011;7842;50.904;6.670;2022-10-16T12:55:04;1.52;;;0.70;;
15480;SDS011;7842;50.904;6.670;2022-10-16T13:08:46;1.52;;;0.70;;
15480;SDS011;7842;50.904;6.670;2022-10-16T13:23:15;1.60;;;0.80;;
15480;SDS011;7842;50.904;6.670;2022-10-16T13:28:44;1.92;;;0.80;;
15480;SDS011;7842;50.904;6.670;2022-10-16T13:31:20;1.10;;;0.70;;
15480;SDS011;7842;50.904;6.670;2022-10-16T13:33:52;1.60;;;0.85;;
15480;SDS011;7842;50.904;6.670;2022-10-16T13:36:22;1.40;;;0.70;;
15480;SDS011;7842;50.904;6.670;2022-10-16T13:41:40;1.70;;;0.70;;
15480;SDS011;7842;50.904;6.670;2022-10-16T13:44:13;1.15;;;0.60;;
15480;SDS011;7842;50.904;6.670;2022-10-16T13:46:44;1.30;;;0.70;;
15480;SDS011;7842;50.904;6.670;2022-10-16T13:49:14;1.38;;;0.77;;
15480;SDS011;7842;50.904;6.670;2022-10-16T13:51:42;1.15;;;0.80;;
15480;SDS011;7842;50.904;6.670;2022-10-16T13:54:19;1.55;;;0.77;;
15480;SDS011;7842;50.904;6.670;2022-10-16T13:56:45;1.45;;;0.77;;
15480;SDS011;7842;50.904;6.670;2022-10-16T14:01:48;0.88;;;0.77;;
15480;SDS011;7842;50.904;6.670;2022-10-16T14:04:16;1.70;;;0.80;;
15480;SDS011;7842;50.904;6.670;2022-10-16T14:06:43;1.73;;;0.70;;
15480;SDS011;7842;50.904;6.670;2022-10-16T14:09:16;2.20;;;0.75;;
15480;SDS011;7842;50.904;6.670;2022-10-16T14:11:51;0.77;;;0.53;;
15480;SDS011;7842;50.904;6.670;2022-10-16T14:14:20;0.88;;;0.60;;
15480;SDS011;7842;50.904;6.670;2022-10-16T14:16:47;1.20;;;0.70;;
15480;SDS011;7842;50.904;6.670;2022-10-16T14:19:15;0.68;;;0.68;;
15480;SDS011;7842;50.904;6.670;2022-10-16T14:21:47;1.17;;;0.70;;
15480;SDS011;7842;50.904;6.670;2022-10-16T14:24:30;1.30;;;0.70;;
15480;SDS011;7842;50.904;6.670;2022-10-16T14:27:00;1.90;;;1.08;;
15480;SDS011;7842;50.904;6.670;2022-10-16T14:29:27;1.83;;;1.17;;
15480;SDS011;7842;50.904;6.670;2022-10-16T14:34:30;1.73;;;1.17;;
15480;SDS011;7842;50.904;6.670;2022-10-16T14:37:00;2.20;;;1.92;;
15480;SDS011;7842;50.904;6.670;2022-10-16T14:39:49;1.47;;;1.30;;
15480;SDS011;7842;50.904;6.670;2022-10-16T14:42:17;1.77;;;1.40;;
15480;SDS011;7842;50.904;6.670;2022-10-16T14:44:44;2.10;;;1.17;;
15480;SDS011;7842;50.904;6.670;2022-10-16T14:47:13;1.30;;;0.82;;
15480;SDS011;7842;50.904;6.670;2022-10-16T14:49:41;1.27;;;0.60;;
15480;SDS011;7842;50.904;6.670;2022-10-16T14:52:11;1.00;;;0.70;;
15480;SDS011;7842;50.904;6.670;2022-10-16T14:54:37;2.17;;;1.05;;
15480;SDS011;7842;50.904;6.670;2022-10-16T14:57:03;1.60;;;1.40;;
15480;SDS011;7842;50.904;6.670;2022-10-16T15:01:58;0.93;;;0.70;;
15480;SDS011;7842;50.904;6.670;2022-10-16T15:04:24;1.63;;;0.98;;
15480;SDS011;7842;50.904;6.670;2022-10-16T15:06:50;0.80;;;0.70;;
15480;SDS011;7842;50.904;6.670;2022-10-16T15:09:16;1.75;;;0.68;;
15480;SDS011;7842;50.904;6.670;2022-10-16T15:11:42;0.80;;;0.70;;
15480;SDS011;7842;50.904;6.670;2022-10-16T15:14:10;1.13;;;0.65;;
15480;SDS011;7842;50.904;6.670;2022-10-16T15:16:37;1.20;;;0.70;;
15480;SDS011;7842;50.904;6.670;2022-10-16T15:19:03;0.83;;;0.77;;
15480;SDS011;7842;50.904;6.670;2022-10-16T15:21:31;1.40;;;0.80;;
15480;SDS011;7842;50.904;6.670;2022-10-16T15:23:58;2.40;;;0.70;;
15480;SDS011;7842;50.904;6.670;2022-10-16T15:26:25;1.50;;;0.80;;
15480;SDS011;7842;50.904;6.670;2022-10-16T15:28:52;1.05;;;0.77;;
15480;SDS011;7842;50.904;6.670;2022-10-16T15:31:18;0.80;;;0.70;;
15480;SDS011;7842;50.904;6.670;2022-10-16T15:33:44;0.85;;;0.60;;
15480;SDS011;7842;50.904;6.670;2022-10-16T15:36:12;0.77;;;0.60;;
15480;SDS011;7842;50.904;6.670;2022-10-16T15:38:38;0.85;;;0.73;;
15480;SDS011;7842;50.904;6.670;2022-10-16T15:41:04;0.93;;;0.90;;
15480;SDS011;7842;50.904;6.670;2022-10-16T15:43:29;0.70;;;0.67;;
15480;SDS011;7842;50.904;6.670;2022-10-16T15:45:59;1.63;;;0.80;;
15480;SDS011;7842;50.904;6.670;2022-10-16T15:48:27;1.02;;;0.93;;
15480;SDS011;7842;50.904;6.670;2022-10-16T15:50:53;1.45;;;1.00;;
15480;SDS011;7842;50.904;6.670;2022-10-16T15:53:19;2.47;;;1.30;;
15480;SDS011;7842;50.904;6.670;2022-10-16T15:55:44;2.43;;;1.83;;
15480;SDS011;7842;50.904;6.670;2022-10-16T15:58:10;3.60;;;2.10;;
15480;SDS011;7842;50.904;6.670;2022-10-16T16:00:35;2.20;;;2.00;;
15480;SDS011;7842;50.904;6.670;2022-10-16T16:03:01;2.10;;;1.88;;
15480;SDS011;7842;50.904;6.670;2022-10-16T16:05:27;2.25;;;1.40;;
15480;SDS011;7842;50.904;6.670;2022-10-16T16:07:52;1.77;;;1.53;;
15480;SDS011;7842;50.904;6.670;2022-10-16T16:10:18;1.70;;;1.30;;
15480;SDS011;7842;50.904;6.670;2022-10-16T16:12:48;1.52;;;1.35;;
15480;SDS011;7842;50.904;6.670;2022-10-16T16:15:17;1.60;;;1.40;;
15480;SDS011;7842;50.904;6.670;2022-10-16T16:17:46;2.38;;;1.70;;
15480;SDS011;7842;50.904;6.670;2022-10-16T16:20:12;2.50;;;1.40;;
15480;SDS011;7842;50.904;6.670;2022-10-16T16:22:37;1.85;;;1.63;;
15480;SDS011;7842;50.904;6.670;2022-10-16T16:25:03;1.50;;;1.25;;
15480;SDS011;7842;50.904;6.670;2022-10-16T16:27:29;3.05;;;1.42;;
15480;SDS011;7842;50.904;6.670;2022-10-16T16:29:58;1.30;;;1.20;;
15480;SDS011;7842;50.904;6.670;2022-10-16T16:32:24;1.40;;;1.30;;
15480;SDS011;7842;50.904;6.670;2022-10-16T16:34:49;1.80;;;1.40;;
15480;SDS011;7842;50.904;6.670;2022-10-16T16:37:15;1.67;;;1.57;;
15480;SDS011;7842;50.904;6.670;2022-10-16T16:39:41;1.60;;;1.50;;
15480;SDS011;7842;50.904;6.670;2022-10-16T16:42:06;2.20;;;1.45;;
15480;SDS011;7842;50.904;6.670;2022-10-16T16:44:32;1.58;;;1.40;;
15480;SDS011;7842;50.904;6.670;2022-10-16T16:47:00;2.13;;;1.30;;
15480;SDS011;7842;50.904;6.670;2022-10-16T16:49:27;2.38;;;1.50;;
15480;SDS011;7842;50.904;6.670;2022-10-16T16:51:52;1.98;;;1.60;;
15480;SDS011;7842;50.904;6.670;2022-10-16T16:54:19;2.25;;;1.40;;
15480;SDS011;7842;50.904;6.670;2022-10-16T16:56:45;2.00;;;1.30;;
15480;SDS011;7842;50.904;6.670;2022-10-16T16:59:12;1.60;;;1.27;;
15480;SDS011;7842;50.904;6.670;2022-10-16T17:01:43;1.60;;;1.20;;
15480;SDS011;7842;50.904;6.670;2022-10-16T17:04:08;1.52;;;1.42;;
15480;SDS011;7842;50.904;6.670;2022-10-16T17:06:35;2.22;;;1.40;;
15480;SDS011;7842;50.904;6.670;2022-10-16T17:09:01;3.03;;;1.55;;
15480;SDS011;7842;50.904;6.670;2022-10-16T17:11:28;2.03;;;1.40;;
15480;SDS011;7842;50.904;6.670;2022-10-16T17:13:57;1.50;;;1.30;;
15480;SDS011;7842;50.904;6.670;2022-10-16T17:16:33;1.20;;;1.10;;
15480;SDS011;7842;50.904;6.670;2022-10-16T17:19:01;3.70;;;1.38;;
15480;SDS011;7842;50.904;6.670;2022-10-16T17:21:28;1.55;;;1.42;;
15480;SDS011;7842;50.904;6.670;2022-10-16T17:23:54;1.83;;;1.60;;